sensor_id;sensor_type;location;lat;lon;timestamp;temperature;humidity
36450;DHT22;22475;51.390;7.180;2022-10-15T00:01:27;15.60;98.80
36450;DHT22;22475;51.390;7.180;2022-10-15T00:03:54;15.60;98.80
36450;DHT22;22475;51.390;7.180;2022-10-15T00:06:21;15.50;98.70
36450;DHT22;22475;51.390;7.180;2022-10-15T00:08:49;15.50;98.70
36450;DHT22;22475;51.390;7.180;2022-10-15T00:11:18;15.50;98.70
36450;DHT22;22475;51.390;7.180;2022-10-15T00:13:45;15.50;98.80
36450;DHT22;22475;51.390;7.180;2022-10-15T00:16:15;15.50;98.70
36450;DHT22;22475;51.390;7.180;2022-10-15T00:18:42;15.50;98.70
36450;DHT22;22475;51.390;7.180;2022-10-15T00:21:12;15.50;98.60
36450;DHT22;22475;51.390;7.180;2022-10-15T00:23:39;15.50;98.60
36450;DHT22;22475;51.390;7.180;2022-10-15T00:26:10;15.50;98.60
36450;DHT22;22475;51.390;7.180;2022-10-15T00:28:37;15.50;98.60
36450;DHT22;22475;51.390;7.180;2022-10-15T00:31:07;15.50;98.50
36450;DHT22;22475;51.390;7.180;2022-10-15T00:33:34;15.50;98.50
36450;DHT22;22475;51.390;7.180;2022-10-15T00:36:02;15.50;98.50
36450;DHT22;22475;51.390;7.180;2022-10-15T00:38:29;15.50;98.50
36450;DHT22;22475;51.390;7.180;2022-10-15T00:40:57;15.50;98.50
36450;DHT22;22475;51.390;7.180;2022-10-15T00:43:39;15.50;98.40
36450;DHT22;22475;51.390;7.180;2022-10-15T00:46:16;15.50;98.40
36450;DHT22;22475;51.390;7.180;2022-10-15T00:48:45;15.50;98.30
36450;DHT22;22475;51.390;7.180;2022-10-15T00:51:14;15.50;98.20
36450;DHT22;22475;51.390;7.180;2022-10-15T00:53:42;15.40;98.40
36450;DHT22;22475;51.390;7.180;2022-10-15T00:56:09;15.40;98.30
36450;DHT22;22475;51.390;7.180;2022-10-15T00:58:38;15.40;98.40
36450;DHT22;22475;51.390;7.180;2022-10-15T01:01:05;15.30;98.40
36450;DHT22;22475;51.390;7.180;2022-10-15T01:03:32;15.30;98.30
36450;DHT22;22475;51.390;7.180;2022-10-15T01:06:00;15.30;98.60
36450;DHT22;22475;51.390;7.180;2022-10-15T01:08:28;15.30;98.40
36450;DHT22;22475;51.390;7.180;2022-10-15T01:11:04;15.20;98.30
36450;DHT22;22475;51.390;7.180;2022-10-15T01:13:41;15.20;98.30
36450;DHT22;22475;51.390;7.180;2022-10-15T01:16:18;15.20;98.30
36450;DHT22;22475;51.390;7.180;2022-10-15T01:18:49;15.10;98.40
36450;DHT22;22475;51.390;7.180;2022-10-15T01:21:21;15.10;98.50
36450;DHT22;22475;51.390;7.180;2022-10-15T01:24:13;15.10;98.60
36450;DHT22;22475;51.390;7.180;2022-10-15T01:33:01;15.20;98.50
36450;DHT22;22475;51.390;7.180;2022-10-15T01:35:35;15.10;98.40
36450;DHT22;22475;51.390;7.180;2022-10-15T01:38:12;15.10;98.70
36450;DHT22;22475;51.390;7.180;2022-10-15T01:40:46;15.10;98.40
36450;DHT22;22475;51.390;7.180;2022-10-15T01:43:16;15.10;98.40
36450;DHT22;22475;51.390;7.180;2022-10-15T01:45:50;15.10;98.40
36450;DHT22;22475;51.390;7.180;2022-10-15T01:48:20;15.10;98.40
36450;DHT22;22475;51.390;7.180;2022-10-15T01:50:51;15.10;98.30
36450;DHT22;22475;51.390;7.180;2022-10-15T01:53:19;15.10;98.30
36450;DHT22;22475;51.390;7.180;2022-10-15T01:55:53;15.10;98.30
36450;DHT22;22475;51.390;7.180;2022-10-15T01:58:22;15.00;98.20
36450;DHT22;22475;51.390;7.180;2022-10-15T02:00:51;15.00;98.30
36450;DHT22;22475;51.390;7.180;2022-10-15T02:03:20;15.00;98.40
36450;DHT22;22475;51.390;7.180;2022-10-15T02:05:50;15.00;98.40
36450;DHT22;22475;51.390;7.180;2022-10-15T02:08:23;15.00;98.50
36450;DHT22;22475;51.390;7.180;2022-10-15T02:10:55;15.00;98.50
36450;DHT22;22475;51.390;7.180;2022-10-15T02:13:30;15.00;98.60
36450;DHT22;22475;51.390;7.180;2022-10-15T02:16:05;15.00;98.60
36450;DHT22;22475;51.390;7.180;2022-10-15T02:18:39;15.00;98.60
36450;DHT22;22475;51.390;7.180;2022-10-15T02:21:10;15.00;98.60
36450;DHT22;22475;51.390;7.180;2022-10-15T02:23:44;15.00;98.60
36450;DHT22;22475;51.390;7.180;2022-10-15T02:26:12;15.00;98.60
36450;DHT22;22475;51.390;7.180;2022-10-15T02:28:44;15.00;98.60
36450;DHT22;22475;51.390;7.180;2022-10-15T02:31:13;15.00;98.70
36450;DHT22;22475;51.390;7.180;2022-10-15T02:33:43;15.10;98.70
36450;DHT22;22475;51.390;7.180;2022-10-15T02:36:12;15.10;98.70
36450;DHT22;22475;51.390;7.180;2022-10-15T02:38:42;15.10;98.70
36450;DHT22;22475;51.390;7.180;2022-10-15T02:41:10;15.00;98.70
36450;DHT22;22475;51.390;7.180;2022-10-15T02:43:38;15.10;98.70
36450;DHT22;22475;51.390;7.180;2022-10-15T02:46:07;15.10;98.70
36450;DHT22;22475;51.390;7.180;2022-10-15T02:48:35;15.10;98.70
36450;DHT22;22475;51.390;7.180;2022-10-15T02:51:04;15.10;98.70
36450;DHT22;22475;51.390;7.180;2022-10-15T02:53:31;15.10;98.60
36450;DHT22;22475;51.390;7.180;2022-10-15T02:55:58;15.10;98.60
36450;DHT22;22475;51.390;7.180;2022-10-15T02:58:25;15.20;98.60
36450;DHT22;22475;51.390;7.180;2022-10-15T03:00:53;15.10;98.60
36450;DHT22;22475;51.390;7.180;2022-10-15T03:03:20;15.10;98.60
36450;DHT22;22475;51.390;7.180;2022-10-15T03:05:47;15.10;98.60
36450;DHT22;22475;51.390;7.180;2022-10-15T03:08:15;15.10;98.60
36450;DHT22;22475;51.390;7.180;2022-10-15T03:10:42;15.20;98.60
36450;DHT22;22475;51.390;7.180;2022-10-15T03:13:11;15.20;98.60
36450;DHT22;22475;51.390;7.180;2022-10-15T03:15:38;15.20;98.60
36450;DHT22;22475;51.390;7.180;2022-10-15T03:18:05;15.20;98.60
36450;DHT22;22475;51.390;7.180;2022-10-15T03:20:32;15.30;98.60
36450;DHT22;22475;51.390;7.180;2022-10-15T03:22:59;15.30;98.50
36450;DHT22;22475;51.390;7.180;2022-10-15T03:25:28;15.30;98.40
36450;DHT22;22475;51.390;7.180;2022-10-15T03:27:55;15.30;98.40
36450;DHT22;22475;51.390;7.180;2022-10-15T03:30:22;15.30;98.40
36450;DHT22;22475;51.390;7.180;2022-10-15T03:32:49;15.20;98.40
36450;DHT22;22475;51.390;7.180;2022-10-15T03:35:16;15.30;98.50
36450;DHT22;22475;51.390;7.180;2022-10-15T03:37:43;15.30;98.50
36450;DHT22;22475;51.390;7.180;2022-10-15T03:40:10;15.30;98.60
36450;DHT22;22475;51.390;7.180;2022-10-15T03:42:39;15.30;98.50
36450;DHT22;22475;51.390;7.180;2022-10-15T03:45:07;15.30;98.50
36450;DHT22;22475;51.390;7.180;2022-10-15T03:47:34;15.30;98.40
36450;DHT22;22475;51.390;7.180;2022-10-15T03:50:01;15.30;98.40
36450;DHT22;22475;51.390;7.180;2022-10-15T03:52:28;15.30;98.30
36450;DHT22;22475;51.390;7.180;2022-10-15T03:54:55;15.30;98.30
36450;DHT22;22475;51.390;7.180;2022-10-15T03:57:22;15.30;98.30
36450;DHT22;22475;51.390;7.180;2022-10-15T03:59:50;15.30;98.30
36450;DHT22;22475;51.390;7.180;2022-10-15T04:02:17;15.20;98.30
36450;DHT22;22475;51.390;7.180;2022-10-15T04:04:44;15.20;98.40
36450;DHT22;22475;51.390;7.180;2022-10-15T04:07:11;15.20;98.40
36450;DHT22;22475;51.390;7.180;2022-10-15T04:09:38;15.30;98.40
36450;DHT22;22475;51.390;7.180;2022-10-15T04:12:05;15.20;98.30
36450;DHT22;22475;51.390;7.180;2022-10-15T04:14:32;15.20;98.30
36450;DHT22;22475;51.390;7.180;2022-10-15T04:17:00;15.20;98.30
36450;DHT22;22475;51.390;7.180;2022-10-15T04:19:27;15.20;98.30
36450;DHT22;22475;51.390;7.180;2022-10-15T04:21:55;15.20;98.30
36450;DHT22;22475;51.390;7.180;2022-10-15T04:24:22;15.30;98.30
36450;DHT22;22475;51.390;7.180;2022-10-15T04:26:49;15.30;98.30
36450;DHT22;22475;51.390;7.180;2022-10-15T04:29:16;15.30;98.30
36450;DHT22;22475;51.390;7.180;2022-10-15T04:31:43;15.30;98.30
36450;DHT22;22475;51.390;7.180;2022-10-15T04:34:11;15.30;98.30
36450;DHT22;22475;51.390;7.180;2022-10-15T04:36:38;15.30;98.20
36450;DHT22;22475;51.390;7.180;2022-10-15T04:39:05;15.30;98.20
36450;DHT22;22475;51.390;7.180;2022-10-15T04:41:32;15.30;98.20
36450;DHT22;22475;51.390;7.180;2022-10-15T04:43:59;15.40;98.20
36450;DHT22;22475;51.390;7.180;2022-10-15T04:46:26;15.40;98.40
36450;DHT22;22475;51.390;7.180;2022-10-15T04:48:53;15.40;98.20
36450;DHT22;22475;51.390;7.180;2022-10-15T04:51:24;15.40;98.20
36450;DHT22;22475;51.390;7.180;2022-10-15T04:53:51;15.40;98.10
36450;DHT22;22475;51.390;7.180;2022-10-15T04:56:19;15.40;98.10
36450;DHT22;22475;51.390;7.180;2022-10-15T04:58:48;15.40;98.20
36450;DHT22;22475;51.390;7.180;2022-10-15T05:01:17;15.40;98.20
36450;DHT22;22475;51.390;7.180;2022-10-15T05:03:46;15.40;98.20
36450;DHT22;22475;51.390;7.180;2022-10-15T05:06:15;15.40;98.20
36450;DHT22;22475;51.390;7.180;2022-10-15T05:08:44;15.40;98.30
36450;DHT22;22475;51.390;7.180;2022-10-15T05:11:13;15.40;98.30
36450;DHT22;22475;51.390;7.180;2022-10-15T05:13:41;15.30;98.30
36450;DHT22;22475;51.390;7.180;2022-10-15T05:16:10;15.40;98.40
36450;DHT22;22475;51.390;7.180;2022-10-15T05:18:38;15.40;98.40
36450;DHT22;22475;51.390;7.180;2022-10-15T05:21:05;15.40;98.40
36450;DHT22;22475;51.390;7.180;2022-10-15T05:23:32;15.40;98.40
36450;DHT22;22475;51.390;7.180;2022-10-15T05:26:03;15.40;98.40
36450;DHT22;22475;51.390;7.180;2022-10-15T05:28:30;15.40;98.40
36450;DHT22;22475;51.390;7.180;2022-10-15T05:31:03;15.40;98.40
36450;DHT22;22475;51.390;7.180;2022-10-15T05:33:30;15.40;98.40
36450;DHT22;22475;51.390;7.180;2022-10-15T05:36:07;15.50;98.40
36450;DHT22;22475;51.390;7.180;2022-10-15T05:38:34;15.50;98.40
36450;DHT22;22475;51.390;7.180;2022-10-15T05:41:02;15.50;98.30
36450;DHT22;22475;51.390;7.180;2022-10-15T05:43:29;15.50;98.30
36450;DHT22;22475;51.390;7.180;2022-10-15T05:45:56;15.50;98.30
36450;DHT22;22475;51.390;7.180;2022-10-15T05:48:23;15.50;98.30
36450;DHT22;22475;51.390;7.180;2022-10-15T05:50:50;15.50;98.30
36450;DHT22;22475;51.390;7.180;2022-10-15T05:53:17;15.60;98.20
36450;DHT22;22475;51.390;7.180;2022-10-15T05:55:44;15.50;98.20
36450;DHT22;22475;51.390;7.180;2022-10-15T05:58:12;15.50;98.20
36450;DHT22;22475;51.390;7.180;2022-10-15T06:00:39;15.50;98.20
36450;DHT22;22475;51.390;7.180;2022-10-15T06:03:08;15.50;98.20
36450;DHT22;22475;51.390;7.180;2022-10-15T06:05:36;15.50;98.20
36450;DHT22;22475;51.390;7.180;2022-10-15T06:08:03;15.50;98.20
36450;DHT22;22475;51.390;7.180;2022-10-15T06:10:33;15.60;98.20
36450;DHT22;22475;51.390;7.180;2022-10-15T06:13:00;15.60;98.20
36450;DHT22;22475;51.390;7.180;2022-10-15T06:15:28;15.60;98.20
36450;DHT22;22475;51.390;7.180;2022-10-15T06:17:55;15.60;98.10
36450;DHT22;22475;51.390;7.180;2022-10-15T06:20:22;15.70;98.10
36450;DHT22;22475;51.390;7.180;2022-10-15T06:22:49;15.70;98.10
36450;DHT22;22475;51.390;7.180;2022-10-15T06:25:16;15.70;98.10
36450;DHT22;22475;51.390;7.180;2022-10-15T06:27:43;15.70;98.00
36450;DHT22;22475;51.390;7.180;2022-10-15T06:30:10;15.70;98.00
36450;DHT22;22475;51.390;7.180;2022-10-15T06:32:38;15.70;98.00
36450;DHT22;22475;51.390;7.180;2022-10-15T06:35:06;15.70;98.00
36450;DHT22;22475;51.390;7.180;2022-10-15T06:37:33;15.70;98.00
36450;DHT22;22475;51.390;7.180;2022-10-15T06:40:00;15.70;97.90
36450;DHT22;22475;51.390;7.180;2022-10-15T06:42:26;15.70;97.90
36450;DHT22;22475;51.390;7.180;2022-10-15T06:44:53;15.70;97.90
36450;DHT22;22475;51.390;7.180;2022-10-15T06:47:20;15.70;97.90
36450;DHT22;22475;51.390;7.180;2022-10-15T06:49:49;15.70;97.90
36450;DHT22;22475;51.390;7.180;2022-10-15T06:52:16;15.70;97.90
36450;DHT22;22475;51.390;7.180;2022-10-15T06:54:43;15.70;97.90
36450;DHT22;22475;51.390;7.180;2022-10-15T06:57:10;15.80;97.90
36450;DHT22;22475;51.390;7.180;2022-10-15T06:59:37;15.80;97.90
36450;DHT22;22475;51.390;7.180;2022-10-15T07:02:03;15.80;97.90
36450;DHT22;22475;51.390;7.180;2022-10-15T07:04:30;15.80;97.90
36450;DHT22;22475;51.390;7.180;2022-10-15T07:06:58;15.80;97.80
36450;DHT22;22475;51.390;7.180;2022-10-15T07:09:25;15.80;97.90
36450;DHT22;22475;51.390;7.180;2022-10-15T07:11:52;15.80;97.90
36450;DHT22;22475;51.390;7.180;2022-10-15T07:14:19;15.80;97.80
36450;DHT22;22475;51.390;7.180;2022-10-15T07:16:46;15.80;98.20
36450;DHT22;22475;51.390;7.180;2022-10-15T07:19:13;15.80;97.80
36450;DHT22;22475;51.390;7.180;2022-10-15T07:21:40;15.80;97.80
36450;DHT22;22475;51.390;7.180;2022-10-15T07:24:08;15.80;97.80
36450;DHT22;22475;51.390;7.180;2022-10-15T07:26:36;15.80;97.80
36450;DHT22;22475;51.390;7.180;2022-10-15T07:29:03;15.80;98.10
36450;DHT22;22475;51.390;7.180;2022-10-15T07:31:31;15.80;97.80
36450;DHT22;22475;51.390;7.180;2022-10-15T07:33:58;15.80;97.80
36450;DHT22;22475;51.390;7.180;2022-10-15T07:36:25;15.80;97.90
36450;DHT22;22475;51.390;7.180;2022-10-15T07:38:52;15.80;97.90
36450;DHT22;22475;51.390;7.180;2022-10-15T07:41:20;15.80;97.90
36450;DHT22;22475;51.390;7.180;2022-10-15T07:43:50;15.80;97.90
36450;DHT22;22475;51.390;7.180;2022-10-15T07:46:17;15.80;97.90
36450;DHT22;22475;51.390;7.180;2022-10-15T07:48:44;15.80;97.90
36450;DHT22;22475;51.390;7.180;2022-10-15T07:51:11;15.80;97.90
36450;DHT22;22475;51.390;7.180;2022-10-15T07:53:38;15.80;97.90
36450;DHT22;22475;51.390;7.180;2022-10-15T07:56:08;15.80;98.00
36450;DHT22;22475;51.390;7.180;2022-10-15T07:58:37;15.80;98.00
36450;DHT22;22475;51.390;7.180;2022-10-15T08:01:05;15.80;98.00
36450;DHT22;22475;51.390;7.180;2022-10-15T08:03:32;15.80;97.90
36450;DHT22;22475;51.390;7.180;2022-10-15T08:06:00;15.80;98.00
36450;DHT22;22475;51.390;7.180;2022-10-15T08:08:27;15.80;98.20
36450;DHT22;22475;51.390;7.180;2022-10-15T08:10:54;15.90;98.00
36450;DHT22;22475;51.390;7.180;2022-10-15T08:13:22;15.90;98.00
36450;DHT22;22475;51.390;7.180;2022-10-15T08:15:50;15.90;97.90
36450;DHT22;22475;51.390;7.180;2022-10-15T08:18:17;15.90;97.90
36450;DHT22;22475;51.390;7.180;2022-10-15T08:20:44;15.90;97.90
36450;DHT22;22475;51.390;7.180;2022-10-15T08:23:14;15.90;97.90
36450;DHT22;22475;51.390;7.180;2022-10-15T08:25:41;15.90;97.90
36450;DHT22;22475;51.390;7.180;2022-10-15T08:28:08;15.90;97.80
36450;DHT22;22475;51.390;7.180;2022-10-15T08:30:35;15.90;97.80
36450;DHT22;22475;51.390;7.180;2022-10-15T08:33:03;15.90;97.80
36450;DHT22;22475;51.390;7.180;2022-10-15T08:35:30;16.00;97.80
36450;DHT22;22475;51.390;7.180;2022-10-15T08:38:00;16.00;97.80
36450;DHT22;22475;51.390;7.180;2022-10-15T08:40:27;16.00;97.70
36450;DHT22;22475;51.390;7.180;2022-10-15T08:42:55;16.00;97.60
36450;DHT22;22475;51.390;7.180;2022-10-15T08:45:27;16.00;97.60
36450;DHT22;22475;51.390;7.180;2022-10-15T08:47:59;16.00;97.60
36450;DHT22;22475;51.390;7.180;2022-10-15T08:50:37;16.10;97.60
36450;DHT22;22475;51.390;7.180;2022-10-15T08:53:04;16.10;97.60
36450;DHT22;22475;51.390;7.180;2022-10-15T08:55:34;16.10;97.50
36450;DHT22;22475;51.390;7.180;2022-10-15T08:58:09;16.10;97.50
36450;DHT22;22475;51.390;7.180;2022-10-15T09:00:42;16.10;97.50
36450;DHT22;22475;51.390;7.180;2022-10-15T09:03:25;16.10;97.50
36450;DHT22;22475;51.390;7.180;2022-10-15T09:06:02;16.10;97.40
36450;DHT22;22475;51.390;7.180;2022-10-15T09:08:39;16.10;97.40
36450;DHT22;22475;51.390;7.180;2022-10-15T09:11:14;16.20;97.40
36450;DHT22;22475;51.390;7.180;2022-10-15T09:13:43;16.20;97.40
36450;DHT22;22475;51.390;7.180;2022-10-15T09:16:14;16.10;97.40
36450;DHT22;22475;51.390;7.180;2022-10-15T09:18:43;16.20;97.40
36450;DHT22;22475;51.390;7.180;2022-10-15T09:21:14;16.20;97.40
36450;DHT22;22475;51.390;7.180;2022-10-15T09:23:42;16.20;97.30
36450;DHT22;22475;51.390;7.180;2022-10-15T09:26:21;16.20;97.30
36450;DHT22;22475;51.390;7.180;2022-10-15T09:28:55;16.20;97.30
36450;DHT22;22475;51.390;7.180;2022-10-15T09:31:28;16.20;97.60
36450;DHT22;22475;51.390;7.180;2022-10-15T09:34:01;16.20;97.20
36450;DHT22;22475;51.390;7.180;2022-10-15T09:36:35;16.20;97.20
36450;DHT22;22475;51.390;7.180;2022-10-15T09:39:15;16.30;97.20
36450;DHT22;22475;51.390;7.180;2022-10-15T09:41:53;16.30;97.20
36450;DHT22;22475;51.390;7.180;2022-10-15T09:44:30;16.30;97.20
36450;DHT22;22475;51.390;7.180;2022-10-15T09:46:59;16.30;97.20
36450;DHT22;22475;51.390;7.180;2022-10-15T09:49:27;16.30;97.20
36450;DHT22;22475;51.390;7.180;2022-10-15T09:52:02;16.30;97.10
36450;DHT22;22475;51.390;7.180;2022-10-15T09:54:40;16.30;97.10
36450;DHT22;22475;51.390;7.180;2022-10-15T09:57:10;16.30;97.10
36450;DHT22;22475;51.390;7.180;2022-10-15T09:59:51;16.40;97.10
36450;DHT22;22475;51.390;7.180;2022-10-15T10:02:19;16.40;97.10
36450;DHT22;22475;51.390;7.180;2022-10-15T10:04:46;16.40;97.10
36450;DHT22;22475;51.390;7.180;2022-10-15T10:07:29;16.40;97.10
36450;DHT22;22475;51.390;7.180;2022-10-15T10:09:58;16.40;97.10
36450;DHT22;22475;51.390;7.180;2022-10-15T10:12:27;16.40;97.40
36450;DHT22;22475;51.390;7.180;2022-10-15T10:14:57;16.40;97.10
36450;DHT22;22475;51.390;7.180;2022-10-15T10:17:25;16.50;97.30
36450;DHT22;22475;51.390;7.180;2022-10-15T10:20:09;16.40;97.30
36450;DHT22;22475;51.390;7.180;2022-10-15T10:22:43;16.50;97.50
36450;DHT22;22475;51.390;7.180;2022-10-15T10:25:36;16.50;97.50
36450;DHT22;22475;51.390;7.180;2022-10-15T10:28:13;16.50;97.60
36450;DHT22;22475;51.390;7.180;2022-10-15T10:30:48;16.50;97.70
36450;DHT22;22475;51.390;7.180;2022-10-15T10:33:23;16.50;97.80
36450;DHT22;22475;51.390;7.180;2022-10-15T10:35:51;16.60;97.90
36450;DHT22;22475;51.390;7.180;2022-10-15T10:38:22;16.60;97.90
36450;DHT22;22475;51.390;7.180;2022-10-15T10:40:50;16.60;98.30
36450;DHT22;22475;51.390;7.180;2022-10-15T10:43:23;16.60;98.00
36450;DHT22;22475;51.390;7.180;2022-10-15T10:45:56;16.70;98.10
36450;DHT22;22475;51.390;7.180;2022-10-15T10:48:25;16.60;98.10
36450;DHT22;22475;51.390;7.180;2022-10-15T10:51:04;16.70;98.20
36450;DHT22;22475;51.390;7.180;2022-10-15T10:53:34;16.70;98.20
36450;DHT22;22475;51.390;7.180;2022-10-15T10:56:05;16.70;98.20
36450;DHT22;22475;51.390;7.180;2022-10-15T10:58:35;16.70;98.20
36450;DHT22;22475;51.390;7.180;2022-10-15T11:01:01;16.70;98.30
36450;DHT22;22475;51.390;7.180;2022-10-15T11:03:34;16.70;98.40
36450;DHT22;22475;51.390;7.180;2022-10-15T11:06:24;16.70;98.50
36450;DHT22;22475;51.390;7.180;2022-10-15T11:09:05;16.70;98.60
36450;DHT22;22475;51.390;7.180;2022-10-15T11:11:40;16.80;98.70
36450;DHT22;22475;51.390;7.180;2022-10-15T11:14:21;16.80;98.70
36450;DHT22;22475;51.390;7.180;2022-10-15T11:16:52;16.80;98.80
36450;DHT22;22475;51.390;7.180;2022-10-15T11:19:31;16.80;98.80
36450;DHT22;22475;51.390;7.180;2022-10-15T11:22:13;16.80;99.00
36450;DHT22;22475;51.390;7.180;2022-10-15T11:24:48;16.80;98.80
36450;DHT22;22475;51.390;7.180;2022-10-15T11:27:31;16.80;98.90
36450;DHT22;22475;51.390;7.180;2022-10-15T11:30:07;16.80;98.90
36450;DHT22;22475;51.390;7.180;2022-10-15T11:32:43;16.80;98.90
36450;DHT22;22475;51.390;7.180;2022-10-15T11:35:30;16.80;99.00
36450;DHT22;22475;51.390;7.180;2022-10-15T11:38:10;16.80;99.00
36450;DHT22;22475;51.390;7.180;2022-10-15T11:40:50;16.80;99.00
36450;DHT22;22475;51.390;7.180;2022-10-15T11:43:30;16.80;99.00
36450;DHT22;22475;51.390;7.180;2022-10-15T11:46:04;16.80;99.10
36450;DHT22;22475;51.390;7.180;2022-10-15T11:48:40;16.80;99.10
36450;DHT22;22475;51.390;7.180;2022-10-15T11:51:16;16.80;99.20
36450;DHT22;22475;51.390;7.180;2022-10-15T11:56:46;16.80;99.40
36450;DHT22;22475;51.390;7.180;2022-10-15T11:59:22;16.90;99.40
36450;DHT22;22475;51.390;7.180;2022-10-15T12:02:00;16.90;99.40
36450;DHT22;22475;51.390;7.180;2022-10-15T12:04:33;16.90;99.40
36450;DHT22;22475;51.390;7.180;2022-10-15T12:07:04;16.90;99.40
36450;DHT22;22475;51.390;7.180;2022-10-15T12:09:35;16.90;99.30
36450;DHT22;22475;51.390;7.180;2022-10-15T12:12:07;16.90;99.30
36450;DHT22;22475;51.390;7.180;2022-10-15T12:14:40;16.90;99.40
36450;DHT22;22475;51.390;7.180;2022-10-15T12:17:15;16.90;99.40
36450;DHT22;22475;51.390;7.180;2022-10-15T12:19:47;17.00;99.40
36450;DHT22;22475;51.390;7.180;2022-10-15T12:22:31;16.90;99.40
36450;DHT22;22475;51.390;7.180;2022-10-15T12:24:59;17.00;99.50
36450;DHT22;22475;51.390;7.180;2022-10-15T12:27:30;17.00;99.50
36450;DHT22;22475;51.390;7.180;2022-10-15T12:30:24;17.00;99.50
36450;DHT22;22475;51.390;7.180;2022-10-15T12:32:52;17.00;99.50
36450;DHT22;22475;51.390;7.180;2022-10-15T12:35:30;17.00;99.50
36450;DHT22;22475;51.390;7.180;2022-10-15T12:38:19;17.00;99.60
36450;DHT22;22475;51.390;7.180;2022-10-15T12:40:55;17.00;99.60
36450;DHT22;22475;51.390;7.180;2022-10-15T12:43:24;17.00;99.60
36450;DHT22;22475;51.390;7.180;2022-10-15T12:45:54;17.00;99.60
36450;DHT22;22475;51.390;7.180;2022-10-15T12:48:30;17.00;99.60
36450;DHT22;22475;51.390;7.180;2022-10-15T12:54:33;17.00;99.60
36450;DHT22;22475;51.390;7.180;2022-10-15T12:57:01;17.00;99.60
36450;DHT22;22475;51.390;7.180;2022-10-15T12:59:53;17.10;99.60
36450;DHT22;22475;51.390;7.180;2022-10-15T13:02:33;17.10;99.70
36450;DHT22;22475;51.390;7.180;2022-10-15T13:05:00;17.10;99.70
36450;DHT22;22475;51.390;7.180;2022-10-15T13:07:28;17.10;99.70
36450;DHT22;22475;51.390;7.180;2022-10-15T13:09:55;17.10;99.70
36450;DHT22;22475;51.390;7.180;2022-10-15T13:12:24;17.10;99.80
36450;DHT22;22475;51.390;7.180;2022-10-15T13:14:55;17.10;99.90
36450;DHT22;22475;51.390;7.180;2022-10-15T13:17:23;17.10;99.90
36450;DHT22;22475;51.390;7.180;2022-10-15T13:19:55;17.10;99.90
36450;DHT22;22475;51.390;7.180;2022-10-15T13:22:24;17.20;99.90
36450;DHT22;22475;51.390;7.180;2022-10-15T13:24:51;17.10;99.90
36450;DHT22;22475;51.390;7.180;2022-10-15T13:27:22;17.10;99.90
36450;DHT22;22475;51.390;7.180;2022-10-15T13:29:55;17.20;99.90
36450;DHT22;22475;51.390;7.180;2022-10-15T13:32:23;17.20;99.90
36450;DHT22;22475;51.390;7.180;2022-10-15T13:34:50;17.20;99.90
36450;DHT22;22475;51.390;7.180;2022-10-15T13:37:22;17.20;99.90
36450;DHT22;22475;51.390;7.180;2022-10-15T13:39:50;17.20;99.90
36450;DHT22;22475;51.390;7.180;2022-10-15T13:42:20;17.30;99.90
36450;DHT22;22475;51.390;7.180;2022-10-15T13:44:59;17.30;99.90
36450;DHT22;22475;51.390;7.180;2022-10-15T13:47:31;17.20;99.90
36450;DHT22;22475;51.390;7.180;2022-10-15T13:50:17;17.30;99.80
36450;DHT22;22475;51.390;7.180;2022-10-15T13:52:47;17.30;99.70
36450;DHT22;22475;51.390;7.180;2022-10-15T13:55:25;17.30;99.60
36450;DHT22;22475;51.390;7.180;2022-10-15T13:58:05;17.40;99.50
36450;DHT22;22475;51.390;7.180;2022-10-15T14:00:34;17.40;99.50
36450;DHT22;22475;51.390;7.180;2022-10-15T14:03:13;17.40;99.50
36450;DHT22;22475;51.390;7.180;2022-10-15T14:05:41;17.40;99.40
36450;DHT22;22475;51.390;7.180;2022-10-15T14:08:17;17.50;99.30
36450;DHT22;22475;51.390;7.180;2022-10-15T14:10:44;17.50;99.30
36450;DHT22;22475;51.390;7.180;2022-10-15T14:13:11;17.50;99.20
36450;DHT22;22475;51.390;7.180;2022-10-15T14:15:42;17.50;99.30
36450;DHT22;22475;51.390;7.180;2022-10-15T14:18:10;17.50;99.30
36450;DHT22;22475;51.390;7.180;2022-10-15T14:20:38;17.50;99.30
36450;DHT22;22475;51.390;7.180;2022-10-15T14:23:14;17.50;99.30
36450;DHT22;22475;51.390;7.180;2022-10-15T14:25:41;17.50;99.40
36450;DHT22;22475;51.390;7.180;2022-10-15T14:28:17;17.50;99.50
36450;DHT22;22475;51.390;7.180;2022-10-15T14:30:46;17.50;99.90
36450;DHT22;22475;51.390;7.180;2022-10-15T14:33:29;17.50;99.60
36450;DHT22;22475;51.390;7.180;2022-10-15T14:36:06;17.50;99.70
36450;DHT22;22475;51.390;7.180;2022-10-15T14:38:33;17.50;99.70
36450;DHT22;22475;51.390;7.180;2022-10-15T14:41:02;17.50;99.70
36450;DHT22;22475;51.390;7.180;2022-10-15T14:43:33;17.50;99.80
36450;DHT22;22475;51.390;7.180;2022-10-15T14:46:04;17.50;99.80
36450;DHT22;22475;51.390;7.180;2022-10-15T14:48:33;17.50;99.80
36450;DHT22;22475;51.390;7.180;2022-10-15T14:51:03;17.50;99.80
36450;DHT22;22475;51.390;7.180;2022-10-15T14:53:33;17.50;99.80
36450;DHT22;22475;51.390;7.180;2022-10-15T14:56:03;17.50;99.70
36450;DHT22;22475;51.390;7.180;2022-10-15T14:58:32;17.50;99.70
36450;DHT22;22475;51.390;7.180;2022-10-15T15:01:02;17.50;99.70
36450;DHT22;22475;51.390;7.180;2022-10-15T15:03:36;17.50;99.70
36450;DHT22;22475;51.390;7.180;2022-10-15T15:06:04;17.50;99.80
36450;DHT22;22475;51.390;7.180;2022-10-15T15:08:31;17.50;99.80
36450;DHT22;22475;51.390;7.180;2022-10-15T15:11:00;17.50;99.90
36450;DHT22;22475;51.390;7.180;2022-10-15T15:13:30;17.50;99.90
36450;DHT22;22475;51.390;7.180;2022-10-15T15:15:57;17.50;99.80
36450;DHT22;22475;51.390;7.180;2022-10-15T15:18:26;17.50;99.90
36450;DHT22;22475;51.390;7.180;2022-10-15T15:20:53;17.50;99.80
36450;DHT22;22475;51.390;7.180;2022-10-15T15:23:24;17.50;99.90
36450;DHT22;22475;51.390;7.180;2022-10-15T15:25:52;17.50;99.90
36450;DHT22;22475;51.390;7.180;2022-10-15T15:28:21;17.50;99.90
36450;DHT22;22475;51.390;7.180;2022-10-15T15:30:54;17.50;99.90
36450;DHT22;22475;51.390;7.180;2022-10-15T15:33:21;17.50;99.90
36450;DHT22;22475;51.390;7.180;2022-10-15T15:35:51;17.50;99.90
36450;DHT22;22475;51.390;7.180;2022-10-15T15:38:20;17.50;99.90
36450;DHT22;22475;51.390;7.180;2022-10-15T15:40:47;17.50;99.90
36450;DHT22;22475;51.390;7.180;2022-10-15T15:43:16;17.50;99.90
36450;DHT22;22475;51.390;7.180;2022-10-15T15:45:45;17.50;99.90
36450;DHT22;22475;51.390;7.180;2022-10-15T15:48:12;17.60;99.90
36450;DHT22;22475;51.390;7.180;2022-10-15T15:50:38;17.50;99.90
36450;DHT22;22475;51.390;7.180;2022-10-15T15:53:08;17.60;99.90
36450;DHT22;22475;51.390;7.180;2022-10-15T15:55:37;17.50;99.90
36450;DHT22;22475;51.390;7.180;2022-10-15T15:58:04;17.60;99.90
36450;DHT22;22475;51.390;7.180;2022-10-15T16:00:31;17.60;99.90
36450;DHT22;22475;51.390;7.180;2022-10-15T16:02:58;17.60;99.90